createdAt,value
2018-06-28T00:02:04.235Z,102536.25
2018-06-28T00:04:32.749Z,102533.64
2018-06-28T00:07:01.263Z,102534.52
2018-06-28T00:09:29.670Z,102530.55
2018-06-28T00:11:58.070Z,102527.53
2018-06-28T00:14:26.457Z,102521.39
2018-06-28T00:16:54.846Z,102520.50
2018-06-28T00:19:23.339Z,102516.97
2018-06-28T00:21:51.735Z,102520.88
2018-06-28T00:24:20.116Z,102515.60
2018-06-28T00:26:48.514Z,102512.97
2018-06-28T00:29:16.886Z,102511.66
2018-06-28T00:31:45.282Z,102516.41
2018-06-28T00:34:13.641Z,102519.03
2018-06-28T00:36:42.039Z,102513.78
2018-06-28T00:39:11.507Z,102516.30
2018-06-28T00:41:40.309Z,102513.69
2018-06-28T00:44:09.387Z,102518.42
2018-06-28T00:46:37.783Z,102517.53
2018-06-28T00:49:06.795Z,102510.45
2018-06-28T00:51:35.203Z,102512.13
2018-06-28T00:54:03.595Z,102509.47
2018-06-28T00:56:31.994Z,102505.53
2018-06-28T00:59:00.380Z,102511.56
2018-06-28T01:01:28.764Z,102512.00
2018-06-28T01:03:57.138Z,102505.36
2018-06-28T01:06:25.546Z,102507.53
2018-06-28T01:08:53.918Z,102518.84
2018-06-28T01:11:22.294Z,102507.91
2018-06-28T01:13:50.704Z,102508.77
2018-06-28T01:16:19.075Z,102507.84
2018-06-28T01:18:47.467Z,102502.98
2018-06-28T01:21:15.830Z,102509.02
2018-06-28T01:23:44.233Z,102504.66
2018-06-28T01:26:12.630Z,102495.02
2018-06-28T01:28:41.034Z,102498.00
2018-06-28T01:31:09.414Z,102496.20
2018-06-28T01:33:37.813Z,102496.52
2018-06-28T01:36:06.202Z,102490.41
2018-06-28T01:38:34.621Z,102489.09
2018-06-28T01:41:02.998Z,102492.53
2018-06-28T01:43:42.698Z,102486.86
2018-06-28T01:46:11.078Z,102488.99
2018-06-28T01:48:39.558Z,102484.63
2018-06-28T01:51:08.122Z,102491.16
2018-06-28T01:53:36.530Z,102490.66
2018-06-28T01:56:05.191Z,102488.91
2018-06-28T01:58:33.598Z,102491.52
2018-06-28T02:01:02.111Z,102484.48
2018-06-28T02:03:30.522Z,102489.23
2018-06-28T02:10:43.927Z,102488.78
2018-06-28T02:13:12.366Z,102489.84
2018-06-28T02:15:40.762Z,102484.98
2018-06-28T02:18:09.753Z,102485.84
2018-06-28T02:20:38.622Z,102481.00
2018-06-28T02:23:07.022Z,102480.13
2018-06-28T02:25:35.517Z,102480.93
2018-06-28T02:28:03.902Z,102477.38
2018-06-28T02:30:32.303Z,102477.28
2018-06-28T02:33:00.681Z,102482.38
2018-06-28T02:35:29.243Z,102473.96
2018-06-28T02:37:57.915Z,102470.34
2018-06-28T02:40:26.330Z,102474.56
2018-06-28T02:42:54.709Z,102466.17
2018-06-28T02:45:23.130Z,102466.54
2018-06-28T02:47:51.507Z,102462.12
2018-06-28T02:50:19.906Z,102463.42
2018-06-28T02:52:48.283Z,102468.22
2018-06-28T02:55:16.686Z,102459.96
2018-06-28T02:57:45.062Z,102456.09
2018-06-28T03:00:13.463Z,102456.16
2018-06-28T03:02:41.851Z,102453.56
2018-06-28T03:05:10.254Z,102451.01
2018-06-28T03:07:38.626Z,102455.86
2018-06-28T03:10:07.023Z,102456.73
2018-06-28T03:12:35.427Z,102451.56
2018-06-28T03:15:03.838Z,102459.49
2018-06-28T03:17:32.235Z,102456.08
2018-06-28T03:20:00.611Z,102455.28
2018-06-28T03:22:29.010Z,102460.68
2018-06-28T03:24:57.386Z,102461.23
2018-06-28T03:27:25.790Z,102463.95
2018-06-28T03:29:54.176Z,102465.76
2018-06-28T03:32:22.575Z,102470.63
2018-06-28T03:34:50.943Z,102466.76
2018-06-28T03:37:19.342Z,102465.95
2018-06-28T03:39:47.715Z,102462.97
2018-06-28T03:42:16.164Z,102468.69
2018-06-28T03:44:44.534Z,102457.00
2018-06-28T03:47:12.939Z,102460.99
2018-06-28T03:49:41.324Z,102457.63
2018-06-28T03:52:09.731Z,102458.62
2018-06-28T03:54:38.132Z,102465.85
2018-06-28T03:57:06.530Z,102474.16
2018-06-28T03:59:34.910Z,102473.01
2018-06-28T04:02:03.315Z,102462.26
2018-06-28T04:04:31.690Z,102461.22
2018-06-28T04:07:00.090Z,102456.19
2018-06-28T04:09:28.479Z,102462.48
2018-06-28T04:11:56.866Z,102461.66
2018-06-28T04:14:25.277Z,102464.23
2018-06-28T04:16:53.738Z,102465.91
2018-06-28T04:19:22.139Z,102464.05
2018-06-28T04:21:50.528Z,102459.92
2018-06-28T04:24:18.897Z,102461.47
2018-06-28T04:26:47.286Z,102463.87
2018-06-28T04:29:15.654Z,102462.73
2018-06-28T04:31:44.137Z,102462.03
2018-06-28T04:34:12.502Z,102466.05
2018-06-28T04:36:40.879Z,102464.88
2018-06-28T04:39:10.975Z,102462.79
2018-06-28T04:41:39.533Z,102465.07
2018-06-28T04:44:07.926Z,102459.02
2018-06-28T04:46:36.294Z,102450.31
2018-06-28T04:49:04.902Z,102456.13
2018-06-28T04:51:33.272Z,102455.33
2018-06-28T04:54:01.682Z,102456.23
2018-06-28T04:56:30.063Z,102455.80
2018-06-28T04:58:58.459Z,102458.41
2018-06-28T05:01:26.825Z,102456.13
2018-06-28T05:03:55.295Z,102460.95
2018-06-28T05:06:23.662Z,102458.30
2018-06-28T05:08:52.053Z,102456.09
2018-06-28T05:11:20.425Z,102457.86
2018-06-28T05:13:48.855Z,102451.31
2018-06-28T05:16:17.227Z,102454.06
2018-06-28T05:18:45.625Z,102444.92
2018-06-28T05:21:13.991Z,102447.16
2018-06-28T05:23:42.397Z,102444.53
2018-06-28T05:26:11.363Z,102446.73
2018-06-28T05:28:39.759Z,102448.47
2018-06-28T05:31:08.122Z,102446.27
2018-06-28T05:33:36.514Z,102446.70
2018-06-28T05:36:04.891Z,102440.53
2018-06-28T05:38:33.870Z,102448.42
2018-06-28T05:41:02.243Z,102438.75
2018-06-28T05:43:30.722Z,102429.13
2018-06-28T05:45:59.228Z,102427.34
2018-06-28T05:48:27.666Z,102423.84
2018-06-28T05:50:56.034Z,102427.38
2018-06-28T05:53:24.610Z,102423.44
2018-06-28T05:55:52.990Z,102418.16
2018-06-28T05:58:21.389Z,102421.70
2018-06-28T06:00:49.786Z,102415.98
2018-06-28T06:03:18.146Z,102419.95
2018-06-28T06:05:46.546Z,102422.14
2018-06-28T06:08:14.918Z,102422.58
2018-06-28T06:10:43.307Z,102421.70
2018-06-28T06:13:11.698Z,102422.60
2018-06-28T06:15:40.102Z,102423.52
2018-06-28T06:18:08.466Z,102411.20
2018-06-28T06:20:36.867Z,102412.06
2018-06-28T06:23:05.242Z,102409.86
2018-06-28T06:25:33.633Z,102409.42
2018-06-28T06:28:01.998Z,102411.20
2018-06-28T06:30:30.410Z,102408.95
2018-06-28T06:32:58.786Z,102404.99
2018-06-28T06:35:27.178Z,102410.27
2018-06-28T06:37:55.546Z,102408.92
2018-06-28T06:40:23.954Z,102404.94
2018-06-28T06:42:52.330Z,102403.59
2018-06-28T06:45:20.726Z,102394.74
2018-06-28T06:47:49.097Z,102392.92
2018-06-28T06:50:17.490Z,102390.66
2018-06-28T06:52:45.863Z,102390.17
2018-06-28T06:55:14.278Z,102390.55
2018-06-28T06:57:42.680Z,102381.70
2018-06-28T07:00:11.079Z,102375.48
2018-06-28T07:02:39.615Z,102373.23
2018-06-28T07:05:07.882Z,102374.05
2018-06-28T07:07:36.265Z,102374.82
2018-06-28T07:10:04.735Z,102375.63
2018-06-28T07:12:33.213Z,102378.13
2018-06-28T07:15:01.680Z,102368.29
2018-06-28T07:17:30.051Z,102368.63
2018-06-28T07:19:58.462Z,102366.33
2018-06-28T07:22:26.839Z,102370.62
2018-06-28T07:24:55.199Z,102361.22
2018-06-28T07:27:23.645Z,102366.83
2018-06-28T07:29:52.010Z,102360.95
2018-06-28T07:32:20.447Z,102359.53
2018-06-28T07:34:48.819Z,102351.94
2018-06-28T07:37:17.358Z,102347.41
2018-06-28T07:39:45.730Z,102344.27
2018-06-28T07:42:14.129Z,102345.94
2018-06-28T07:44:42.513Z,102350.37
2018-06-28T07:47:10.906Z,102343.33
2018-06-28T07:49:39.434Z,102347.31
2018-06-28T07:52:07.833Z,102345.47
2018-06-28T07:54:36.194Z,102343.62
2018-06-28T07:57:04.591Z,102346.16
2018-06-28T07:59:33.115Z,102348.28
2018-06-28T08:02:01.392Z,102341.59
2018-06-28T08:04:29.784Z,102336.21
2018-06-28T08:06:58.186Z,102336.97
2018-06-28T08:09:26.560Z,102333.30
2018-06-28T08:11:55.044Z,102335.82
2018-06-28T08:14:23.534Z,102333.91
2018-06-28T08:16:51.939Z,102335.64
2018-06-28T08:19:20.384Z,102328.00
2018-06-28T08:21:48.905Z,102340.73
2018-06-28T08:24:17.267Z,102332.72
2018-06-28T08:26:45.665Z,102329.19
2018-06-28T08:29:14.209Z,102325.55
2018-06-28T08:31:42.608Z,102332.09
2018-06-28T08:34:10.979Z,102325.41
2018-06-28T08:36:39.377Z,102326.71
2018-06-28T08:39:08.760Z,102318.68
2018-06-28T08:41:37.346Z,102314.63
2018-06-28T08:44:06.158Z,102309.23
2018-06-28T08:46:35.094Z,102306.95
2018-06-28T08:49:03.652Z,102300.23
2018-06-28T08:51:32.039Z,102309.38
2018-06-28T08:54:00.409Z,102310.63
2018-06-28T08:56:28.783Z,102315.31
2018-06-28T08:58:57.175Z,102314.30
2018-06-28T09:01:25.714Z,102300.92
2018-06-28T09:03:54.139Z,102302.58
2018-06-28T09:06:22.506Z,102306.06
2018-06-28T09:08:50.898Z,102306.38
2018-06-28T09:11:19.258Z,102306.20
2018-06-28T09:13:47.667Z,102298.13
2018-06-28T09:16:16.283Z,102291.33
2018-06-28T09:18:45.118Z,102307.58
2018-06-28T09:21:13.554Z,102293.50
2018-06-28T09:23:41.971Z,102290.46
2018-06-28T09:26:10.338Z,102285.13
2018-06-28T09:28:38.730Z,102285.91
2018-06-28T09:31:07.385Z,102276.99
2018-06-28T09:33:35.797Z,102289.73
2018-06-28T09:36:04.198Z,102279.08
2018-06-28T09:38:32.595Z,102285.22
2018-06-28T09:41:00.966Z,102276.72
2018-06-28T09:43:29.353Z,102271.00
2018-06-28T09:45:57.722Z,102272.31
2018-06-28T09:48:26.110Z,102265.14
2018-06-28T09:50:54.475Z,102256.59
2018-06-28T09:53:22.866Z,102255.54
2018-06-28T09:55:51.276Z,102254.50
2018-06-28T09:58:19.678Z,102255.63
2018-06-28T10:00:48.070Z,102254.59
2018-06-28T10:03:16.458Z,102250.11
2018-06-28T10:05:44.849Z,102249.63
2018-06-28T10:08:13.224Z,102252.62
2018-06-28T10:10:41.622Z,102247.63
2018-06-28T10:13:10.044Z,102259.07
2018-06-28T10:15:38.438Z,102256.81
2018-06-28T10:18:06.884Z,102244.72
2018-06-28T10:20:35.239Z,102250.33
2018-06-28T10:23:03.626Z,102240.49
2018-06-28T10:25:32.019Z,102246.22
2018-06-28T10:28:00.387Z,102243.18
2018-06-28T10:30:28.778Z,102245.09
2018-06-28T10:32:57.155Z,102230.58
2018-06-28T10:35:25.555Z,102220.37
2018-06-28T10:37:53.918Z,102217.55
2018-06-28T10:40:22.310Z,102210.84
2018-06-28T10:42:50.677Z,102216.41
2018-06-28T10:45:19.071Z,102198.09
2018-06-28T10:47:47.444Z,102204.55
2018-06-28T10:50:15.842Z,102207.86
2018-06-28T10:52:44.218Z,102199.80
2018-06-28T10:55:12.623Z,102204.70
2018-06-28T10:57:41.007Z,102200.77
2018-06-28T11:00:09.404Z,102197.30
2018-06-28T11:02:37.774Z,102200.93
2018-06-28T11:05:06.383Z,102189.05
2018-06-28T11:07:34.749Z,102185.55
2018-06-28T11:10:03.170Z,102185.05
2018-06-28T11:12:31.546Z,102200.93
2018-06-28T11:14:59.958Z,102184.12
2018-06-28T11:17:28.335Z,102183.33
2018-06-28T11:19:56.728Z,102179.37
2018-06-28T11:22:25.285Z,102182.89
2018-06-28T11:24:53.652Z,102168.31
2018-06-28T11:27:22.115Z,102169.31
2018-06-28T11:29:50.621Z,102170.64
2018-06-28T11:32:19.126Z,102171.67
2018-06-28T11:34:47.498Z,102166.84
2018-06-28T11:37:15.891Z,102158.42
2018-06-28T11:39:44.267Z,102164.58
2018-06-28T11:42:12.659Z,102161.02
2018-06-28T11:44:41.034Z,102146.78
2018-06-28T11:47:09.710Z,102159.50
2018-06-28T11:49:38.077Z,102151.02
2018-06-28T11:52:06.465Z,102153.58
2018-06-28T11:54:35.561Z,102148.13
2018-06-28T11:57:03.970Z,102145.66
2018-06-28T11:59:32.338Z,102148.16
2018-06-28T12:02:00.726Z,102144.56
2018-06-28T12:04:29.090Z,102135.67
2018-06-28T12:06:57.528Z,102138.80
2018-06-28T12:09:25.904Z,102133.48
2018-06-28T12:11:54.289Z,102124.95
2018-06-28T12:14:22.766Z,102131.11
2018-06-28T12:16:51.243Z,102129.28
2018-06-28T12:19:19.729Z,102126.48
2018-06-28T12:21:48.158Z,102122.63
2018-06-28T12:24:16.524Z,102118.39
2018-06-28T12:26:45.023Z,102124.41
2018-06-28T12:29:13.394Z,102121.99
2018-06-28T12:31:42.444Z,102118.70
2018-06-28T12:34:10.929Z,102128.79
2018-06-28T12:36:39.332Z,102104.87
2018-06-28T12:39:09.282Z,102117.38
2018-06-28T12:41:37.754Z,102108.55
2018-06-28T12:44:06.150Z,102109.06
2018-06-28T12:47:47.206Z,102116.16
2018-06-28T12:50:15.582Z,102111.11
2018-06-28T12:52:52.757Z,102101.35
2018-06-28T12:55:21.828Z,102110.61
2018-06-28T12:57:50.678Z,102103.48
2018-06-28T13:00:19.414Z,102095.95
2018-06-28T13:02:47.797Z,102100.27
2018-06-28T13:05:16.816Z,102096.52
2018-06-28T13:07:45.222Z,102101.70
2018-06-28T13:10:15.725Z,102094.20
2018-06-28T13:12:44.188Z,102082.22
2018-06-28T13:15:13.710Z,102093.63
2018-06-28T13:17:42.271Z,102084.73
2018-06-28T13:20:11.376Z,102085.62
2018-06-28T13:22:40.254Z,102080.30
2018-06-28T13:25:09.990Z,102074.89
2018-06-28T13:27:38.454Z,102076.93
2018-06-28T13:30:08.162Z,102072.86
2018-06-28T13:32:36.534Z,102079.02
2018-06-28T13:35:05.011Z,102079.98
2018-06-28T13:37:33.378Z,102080.46
2018-06-28T13:40:01.780Z,102083.98
2018-06-28T13:42:30.150Z,102073.75
2018-06-28T13:44:58.541Z,102064.86
2018-06-28T13:47:26.906Z,102055.61
2018-06-28T13:49:55.270Z,102056.42
2018-06-28T13:52:23.667Z,102052.31
2018-06-28T13:54:52.036Z,102044.66
2018-06-28T13:57:20.427Z,102044.51
2018-06-28T13:59:48.810Z,102040.86
2018-06-28T14:02:17.210Z,102038.59
2018-06-28T14:04:45.605Z,102036.39
2018-06-28T14:07:14.006Z,102033.37
2018-06-28T14:09:42.374Z,102041.02
2018-06-28T14:12:10.778Z,102044.71
2018-06-28T14:14:39.171Z,102034.20
2018-06-28T14:17:07.562Z,102028.99
2018-06-28T14:19:35.933Z,102018.48
2018-06-28T14:22:04.335Z,102015.00
2018-06-28T14:24:32.721Z,102014.02
2018-06-28T14:27:01.998Z,102009.86
2018-06-28T14:29:30.362Z,102016.80
2018-06-28T14:31:58.760Z,102010.56
2018-06-28T14:34:27.122Z,102016.25
2018-06-28T14:36:55.523Z,102012.25
2018-06-28T14:39:23.951Z,102018.56
2018-06-28T14:41:52.406Z,102009.78
2018-06-28T14:44:20.723Z,102006.29
2018-06-28T14:46:49.118Z,102002.29
2018-06-28T14:49:17.497Z,102005.42
2018-06-28T14:51:45.897Z,102000.19
2018-06-28T14:54:14.262Z,102000.70
2018-06-28T14:56:42.653Z,102000.70
2018-06-28T14:59:11.030Z,102003.48
2018-06-28T15:01:39.428Z,101993.87
2018-06-28T15:04:07.808Z,101997.87
2018-06-28T15:06:36.218Z,101993.80
2018-06-28T15:09:06.758Z,101991.95
2018-06-28T15:11:35.130Z,101993.80
2018-06-28T15:14:03.571Z,101987.25
2018-06-28T15:16:31.942Z,101985.95
2018-06-28T15:19:00.355Z,101984.23
2018-06-28T15:21:28.737Z,101991.83
2018-06-28T15:23:57.137Z,101991.05
2018-06-28T15:26:25.510Z,101984.90
2018-06-28T15:28:53.914Z,101981.38
2018-06-28T15:31:22.315Z,101981.38
2018-06-28T15:33:50.742Z,101975.18
2018-06-28T15:36:19.186Z,101976.16
2018-06-28T15:38:47.807Z,101972.33
2018-06-28T15:41:16.362Z,101971.58
2018-06-28T15:43:44.783Z,101972.56
2018-06-28T15:46:13.156Z,101962.37
2018-06-28T15:48:41.561Z,101968.52
2018-06-28T15:51:09.942Z,101963.59
2018-06-28T15:53:38.362Z,101964.45
2018-06-28T15:56:06.765Z,101959.13
2018-06-28T15:58:35.161Z,101960.06
2018-06-28T16:01:03.548Z,101958.77
2018-06-28T16:03:31.953Z,101951.72
2018-06-28T16:06:00.445Z,101944.23
2018-06-28T16:08:28.961Z,101944.63
2018-06-28T16:10:57.339Z,101941.22
2018-06-28T16:13:25.770Z,101932.05
2018-06-28T16:15:54.159Z,101933.10
2018-06-28T16:18:22.563Z,101928.72
2018-06-28T16:20:51.028Z,101927.81
2018-06-28T16:23:19.446Z,101924.13
2018-06-28T16:25:47.838Z,101928.77
2018-06-28T16:28:16.206Z,101925.22
2018-06-28T16:30:44.630Z,101929.32
2018-06-28T16:33:13.000Z,101928.45
2018-06-28T16:35:41.403Z,101919.50
2018-06-28T16:38:09.767Z,101921.33
2018-06-28T16:40:38.767Z,101914.45
2018-06-28T16:43:07.138Z,101917.53
2018-06-28T16:45:35.538Z,101918.48
2018-06-28T16:48:03.942Z,101920.04
2018-06-28T16:50:32.350Z,101919.88
2018-06-28T16:53:00.736Z,101912.41
2018-06-28T16:55:29.154Z,101918.33
2018-06-28T16:57:57.545Z,101920.65
2018-06-28T17:00:25.981Z,101921.78
2018-06-28T17:02:54.359Z,101917.56
2018-06-28T17:05:22.750Z,101919.08
2018-06-28T17:07:51.284Z,101917.36
2018-06-28T17:10:19.577Z,101912.39
2018-06-28T17:12:47.954Z,101916.25
2018-06-28T17:15:16.386Z,101903.88
2018-06-28T17:17:44.782Z,101912.71
2018-06-28T17:20:13.214Z,101915.02
2018-06-28T17:22:41.623Z,101910.48
2018-06-28T17:25:10.064Z,101914.50
2018-06-28T17:27:38.431Z,101900.52
2018-06-28T17:30:07.015Z,101904.59
2018-06-28T17:32:35.382Z,101904.00
2018-06-28T17:35:03.807Z,101900.58
2018-06-28T17:37:32.253Z,101891.75
2018-06-28T17:40:00.607Z,101897.05
2018-06-28T17:42:28.982Z,101893.03
2018-06-28T17:44:57.377Z,101899.78
2018-06-28T17:47:25.863Z,101902.14
2018-06-28T17:49:54.283Z,101900.73
2018-06-28T17:52:22.664Z,101899.72
2018-06-28T17:54:51.026Z,101900.38
2018-06-28T17:57:19.425Z,101898.00
2018-06-28T17:59:47.793Z,101894.74
2018-06-28T18:02:16.194Z,101893.35
2018-06-28T18:04:44.565Z,101892.53
2018-06-28T18:07:12.954Z,101885.13
2018-06-28T18:09:41.338Z,101889.58
2018-06-28T18:12:09.763Z,101894.16
2018-06-28T18:14:38.218Z,101885.59
2018-06-28T18:17:06.606Z,101879.89
2018-06-28T18:22:28.455Z,101877.87
2018-06-28T18:24:56.818Z,101884.25
2018-06-28T18:27:25.387Z,101885.19
2018-06-28T18:29:54.100Z,101880.80
2018-06-28T18:32:22.539Z,101879.36
2018-06-28T18:34:50.911Z,101879.69
2018-06-28T18:37:19.302Z,101867.58
2018-06-28T18:39:47.670Z,101868.63
2018-06-28T18:42:16.058Z,101869.65
2018-06-28T18:44:44.587Z,101866.25
2018-06-28T18:47:13.045Z,101868.63
2018-06-28T18:49:41.407Z,101862.17
2018-06-28T18:52:09.822Z,101860.53
2018-06-28T18:54:38.194Z,101865.62
2018-06-28T18:57:06.597Z,101868.42
2018-06-28T18:59:34.974Z,101866.00
2018-06-28T19:02:03.450Z,101873.29
2018-06-28T19:04:31.783Z,101871.70
2018-06-28T19:07:00.180Z,101869.67
2018-06-28T19:09:33.959Z,101875.14
2018-06-28T19:12:02.387Z,101870.92
2018-06-28T19:14:36.161Z,101874.16
2018-06-28T19:17:04.567Z,101871.27
2018-06-28T19:19:32.934Z,101871.88
2018-06-28T19:22:06.791Z,101876.88
2018-06-28T19:24:35.170Z,101872.67
2018-06-28T19:27:03.607Z,101882.53
2018-06-28T19:29:37.313Z,101884.02
2018-06-28T19:32:11.151Z,101877.53
2018-06-28T19:34:39.527Z,101876.38
2018-06-28T19:37:11.414Z,101873.07
2018-06-28T19:39:45.239Z,101870.66
2018-06-28T19:42:19.051Z,101878.34
2018-06-28T19:44:47.413Z,101885.55
2018-06-28T19:47:15.774Z,101881.80
2018-06-28T19:49:49.459Z,101881.09
2018-06-28T19:52:23.197Z,101883.00
2018-06-28T19:54:51.588Z,101886.24
2018-06-28T19:57:19.950Z,101887.30
2018-06-28T19:59:48.918Z,101883.48
2018-06-28T20:02:22.724Z,101880.98
2018-06-28T20:04:51.136Z,101883.75
2018-06-28T20:07:19.506Z,101882.57
2018-06-28T20:09:47.912Z,101881.83
2018-06-28T20:12:21.618Z,101883.72
2018-06-28T20:14:55.451Z,101879.80
2018-06-28T20:17:29.130Z,101884.34
2018-06-28T20:20:02.840Z,101873.02
2018-06-28T20:22:31.210Z,101877.55
2018-06-28T20:24:59.627Z,101882.03
2018-06-28T20:27:33.366Z,101876.86
2018-06-28T20:30:07.224Z,101883.57
2018-06-28T20:32:41.014Z,101878.85
2018-06-28T20:35:09.411Z,101878.09
2018-06-28T20:37:37.791Z,101876.00
2018-06-28T20:40:06.403Z,101864.23
2018-06-28T20:42:34.775Z,101870.92
2018-06-28T20:45:03.221Z,101871.88
2018-06-28T20:47:31.590Z,101869.33
2018-06-28T20:49:59.974Z,101868.55
2018-06-28T20:52:28.339Z,101860.30
2018-06-28T20:54:56.730Z,101859.92
2018-06-28T20:57:25.106Z,101860.03
2018-06-28T20:59:53.522Z,101855.73
2018-06-28T21:02:21.910Z,101860.17
2018-06-28T21:04:50.297Z,101850.63
2018-06-28T21:07:18.686Z,101857.73
2018-06-28T21:09:47.050Z,101850.34
2018-06-28T21:12:15.433Z,101849.55
2018-06-28T21:14:44.093Z,101847.84
2018-06-28T21:17:12.515Z,101846.56
2018-06-28T21:19:40.890Z,101848.36
2018-06-28T21:22:09.285Z,101859.39
2018-06-28T21:24:37.660Z,101855.90
2018-06-28T21:27:06.066Z,101847.56
2018-06-28T21:29:34.461Z,101854.61
2018-06-28T21:32:02.880Z,101850.25
2018-06-28T21:34:31.251Z,101849.40
2018-06-28T21:36:59.646Z,101845.47
2018-06-28T21:39:28.020Z,101845.91
2018-06-28T21:41:56.410Z,101847.69
2018-06-28T21:44:24.780Z,101851.20
2018-06-28T21:46:53.212Z,101856.03
2018-06-28T21:49:21.701Z,101855.61
2018-06-28T21:51:50.094Z,101859.59
2018-06-28T21:54:18.457Z,101858.30
2018-06-28T21:56:46.842Z,101859.63
2018-06-28T21:59:15.205Z,101857.42
2018-06-28T22:01:48.746Z,101857.01
2018-06-28T22:04:17.122Z,101850.89
2018-06-28T22:06:45.734Z,101848.69
2018-06-28T22:09:14.380Z,101852.64
2018-06-28T22:11:42.962Z,101848.70
2018-06-28T22:14:11.540Z,101835.56
2018-06-28T22:16:39.913Z,101835.98
2018-06-28T22:19:09.903Z,101840.36
2018-06-28T22:21:38.298Z,101840.36
2018-06-28T22:24:06.826Z,101839.06
2018-06-28T22:26:35.196Z,101836.00
2018-06-28T22:29:03.733Z,101839.49
2018-06-28T22:31:32.106Z,101834.69
2018-06-28T22:34:00.563Z,101825.48
2018-06-28T22:36:28.901Z,101829.88
2018-06-28T22:38:57.289Z,101827.70
2018-06-28T22:41:25.651Z,101830.74
2018-06-28T22:43:54.381Z,101835.14
2018-06-28T22:46:22.741Z,101832.08
2018-06-28T22:48:51.139Z,101829.45
2018-06-28T22:51:19.515Z,101832.48
2018-06-28T22:53:47.902Z,101825.50
2018-06-28T22:56:16.270Z,101829.43
2018-06-28T22:58:44.658Z,101829.41
2018-06-28T23:01:13.026Z,101821.10
2018-06-28T23:03:41.417Z,101819.78
2018-06-28T23:06:09.853Z,101825.44
2018-06-28T23:08:38.243Z,101826.33
2018-06-28T23:11:06.615Z,101826.31
2018-06-28T23:13:35.031Z,101818.39
2018-06-28T23:16:03.401Z,101820.15
2018-06-28T23:18:31.790Z,101814.42
2018-06-28T23:21:00.154Z,101825.36
2018-06-28T23:23:28.541Z,101814.42
2018-06-28T23:25:56.908Z,101824.01
2018-06-28T23:28:25.274Z,101818.33
2018-06-28T23:30:53.675Z,101819.16
2018-06-28T23:33:22.043Z,101813.04
2018-06-28T23:35:50.431Z,101798.15
2018-06-28T23:38:18.800Z,101802.95
2018-06-28T23:40:47.202Z,101803.39
2018-06-28T23:43:15.598Z,101803.83
2018-06-28T23:45:43.990Z,101797.24
2018-06-28T23:48:12.362Z,101798.09
2018-06-28T23:50:40.758Z,101799.37
2018-06-28T23:53:09.114Z,101798.94
2018-06-28T23:55:37.499Z,101794.11
2018-06-28T23:58:05.878Z,101789.70
